sensor_id;sensor_type;location;lat;lon;timestamp;P1;durP1;ratioP1;P2;durP2;ratioP2
58360;SDS011;44164;44.954;10.068;2022-12-13T00:01:29;8.07;;;6.70;;
58360;SDS011;44164;44.954;10.068;2022-12-13T00:04:00;8.23;;;5.82;;
58360;SDS011;44164;44.954;10.068;2022-12-13T00:06:27;7.25;;;6.30;;
58360;SDS011;44164;44.954;10.068;2022-12-13T00:08:55;8.23;;;6.53;;
58360;SDS011;44164;44.954;10.068;2022-12-13T00:11:21;8.50;;;7.28;;
58360;SDS011;44164;44.954;10.068;2022-12-13T00:13:47;6.82;;;5.55;;
58360;SDS011;44164;44.954;10.068;2022-12-13T00:16:15;7.88;;;6.20;;
58360;SDS011;44164;44.954;10.068;2022-12-13T00:18:48;7.57;;;6.22;;
58360;SDS011;44164;44.954;10.068;2022-12-13T00:21:15;9.00;;;6.70;;
58360;SDS011;44164;44.954;10.068;2022-12-13T00:26:10;7.93;;;5.78;;
58360;SDS011;44164;44.954;10.068;2022-12-13T00:28:41;7.15;;;6.45;;
58360;SDS011;44164;44.954;10.068;2022-12-13T00:31:08;7.57;;;6.28;;
58360;SDS011;44164;44.954;10.068;2022-12-13T00:33:36;7.18;;;6.10;;
58360;SDS011;44164;44.954;10.068;2022-12-13T00:36:03;8.20;;;6.60;;
58360;SDS011;44164;44.954;10.068;2022-12-13T00:38:30;6.80;;;5.85;;
58360;SDS011;44164;44.954;10.068;2022-12-13T00:40:56;8.27;;;6.63;;
58360;SDS011;44164;44.954;10.068;2022-12-13T00:43:22;6.70;;;5.97;;
58360;SDS011;44164;44.954;10.068;2022-12-13T00:45:48;7.32;;;6.05;;
58360;SDS011;44164;44.954;10.068;2022-12-13T00:48:14;7.75;;;6.15;;
58360;SDS011;44164;44.954;10.068;2022-12-13T00:50:40;8.13;;;6.65;;
58360;SDS011;44164;44.954;10.068;2022-12-13T00:53:07;7.75;;;5.88;;
58360;SDS011;44164;44.954;10.068;2022-12-13T00:55:38;7.15;;;6.40;;
58360;SDS011;44164;44.954;10.068;2022-12-13T00:58:05;8.15;;;6.22;;
58360;SDS011;44164;44.954;10.068;2022-12-13T01:00:31;9.52;;;7.15;;
58360;SDS011;44164;44.954;10.068;2022-12-13T01:02:57;7.72;;;6.28;;
58360;SDS011;44164;44.954;10.068;2022-12-13T01:05:23;7.18;;;6.40;;
58360;SDS011;44164;44.954;10.068;2022-12-13T01:07:49;8.75;;;6.90;;
58360;SDS011;44164;44.954;10.068;2022-12-13T01:10:15;9.27;;;6.60;;
58360;SDS011;44164;44.954;10.068;2022-12-13T01:12:41;10.05;;;6.78;;
58360;SDS011;44164;44.954;10.068;2022-12-13T01:15:08;8.02;;;6.43;;
58360;SDS011;44164;44.954;10.068;2022-12-13T01:17:34;7.70;;;6.55;;
58360;SDS011;44164;44.954;10.068;2022-12-13T01:20:01;8.75;;;6.38;;
58360;SDS011;44164;44.954;10.068;2022-12-13T01:22:30;8.27;;;6.88;;
58360;SDS011;44164;44.954;10.068;2022-12-13T01:24:56;8.88;;;6.57;;
58360;SDS011;44164;44.954;10.068;2022-12-13T01:27:23;7.55;;;6.50;;
58360;SDS011;44164;44.954;10.068;2022-12-13T01:29:49;9.00;;;6.88;;
58360;SDS011;44164;44.954;10.068;2022-12-13T01:32:15;8.70;;;6.80;;
58360;SDS011;44164;44.954;10.068;2022-12-13T01:34:41;7.85;;;5.95;;
58360;SDS011;44164;44.954;10.068;2022-12-13T01:37:07;7.75;;;6.25;;
58360;SDS011;44164;44.954;10.068;2022-12-13T01:39:33;7.55;;;6.20;;
58360;SDS011;44164;44.954;10.068;2022-12-13T01:41:59;8.57;;;6.15;;
58360;SDS011;44164;44.954;10.068;2022-12-13T01:47:45;7.75;;;6.32;;
58360;SDS011;44164;44.954;10.068;2022-12-13T01:50:16;6.85;;;5.88;;
58360;SDS011;44164;44.954;10.068;2022-12-13T01:52:46;8.35;;;6.72;;
58360;SDS011;44164;44.954;10.068;2022-12-13T01:55:15;9.07;;;6.35;;
58360;SDS011;44164;44.954;10.068;2022-12-13T01:57:43;6.75;;;6.05;;
58360;SDS011;44164;44.954;10.068;2022-12-13T02:00:12;7.28;;;5.97;;
58360;SDS011;44164;44.954;10.068;2022-12-13T02:02:39;8.07;;;6.45;;
58360;SDS011;44164;44.954;10.068;2022-12-13T02:07:34;7.20;;;6.35;;
58360;SDS011;44164;44.954;10.068;2022-12-13T02:10:03;8.02;;;6.95;;
58360;SDS011;44164;44.954;10.068;2022-12-13T02:14:58;8.40;;;6.43;;
58360;SDS011;44164;44.954;10.068;2022-12-13T02:30:30;8.95;;;6.40;;
58360;SDS011;44164;44.954;10.068;2022-12-13T02:36:07;8.45;;;6.72;;
58360;SDS011;44164;44.954;10.068;2022-12-13T02:41:14;8.45;;;6.35;;
58360;SDS011;44164;44.954;10.068;2022-12-13T02:43:59;7.38;;;6.30;;
58360;SDS011;44164;44.954;10.068;2022-12-13T02:46:31;7.57;;;6.53;;
58360;SDS011;44164;44.954;10.068;2022-12-13T02:48:58;8.93;;;6.25;;
58360;SDS011;44164;44.954;10.068;2022-12-13T02:51:24;7.38;;;6.28;;
58360;SDS011;44164;44.954;10.068;2022-12-13T02:53:51;7.70;;;6.60;;
58360;SDS011;44164;44.954;10.068;2022-12-13T02:56:17;6.93;;;5.90;;
58360;SDS011;44164;44.954;10.068;2022-12-13T02:58:46;9.38;;;7.00;;
58360;SDS011;44164;44.954;10.068;2022-12-13T03:09:59;8.60;;;6.97;;
58360;SDS011;44164;44.954;10.068;2022-12-13T03:12:44;8.45;;;6.65;;
58360;SDS011;44164;44.954;10.068;2022-12-13T03:18:18;7.30;;;6.40;;
58360;SDS011;44164;44.954;10.068;2022-12-13T03:20:53;8.25;;;6.63;;
58360;SDS011;44164;44.954;10.068;2022-12-13T03:23:22;8.13;;;6.70;;
58360;SDS011;44164;44.954;10.068;2022-12-13T03:26:00;7.05;;;5.65;;
58360;SDS011;44164;44.954;10.068;2022-12-13T03:28:29;7.68;;;6.88;;
58360;SDS011;44164;44.954;10.068;2022-12-13T03:30:55;8.55;;;6.93;;
58360;SDS011;44164;44.954;10.068;2022-12-13T03:33:21;9.00;;;6.85;;
58360;SDS011;44164;44.954;10.068;2022-12-13T03:35:47;8.32;;;6.15;;
58360;SDS011;44164;44.954;10.068;2022-12-13T03:38:14;7.72;;;5.95;;
58360;SDS011;44164;44.954;10.068;2022-12-13T03:40:41;7.85;;;6.22;;
58360;SDS011;44164;44.954;10.068;2022-12-13T03:43:07;7.43;;;6.07;;
58360;SDS011;44164;44.954;10.068;2022-12-13T03:45:33;7.38;;;5.97;;
58360;SDS011;44164;44.954;10.068;2022-12-13T03:47:59;7.13;;;6.20;;
58360;SDS011;44164;44.954;10.068;2022-12-13T03:50:25;7.72;;;6.45;;
58360;SDS011;44164;44.954;10.068;2022-12-13T03:52:56;7.30;;;6.38;;
58360;SDS011;44164;44.954;10.068;2022-12-13T03:55:24;8.52;;;6.63;;
58360;SDS011;44164;44.954;10.068;2022-12-13T03:57:50;7.30;;;6.35;;
58360;SDS011;44164;44.954;10.068;2022-12-13T04:00:16;7.32;;;6.28;;
58360;SDS011;44164;44.954;10.068;2022-12-13T04:02:42;9.27;;;6.97;;
58360;SDS011;44164;44.954;10.068;2022-12-13T04:05:08;8.10;;;6.20;;
58360;SDS011;44164;44.954;10.068;2022-12-13T04:07:34;6.80;;;5.90;;
58360;SDS011;44164;44.954;10.068;2022-12-13T04:10:01;7.30;;;6.30;;
58360;SDS011;44164;44.954;10.068;2022-12-13T04:12:28;7.80;;;6.45;;
58360;SDS011;44164;44.954;10.068;2022-12-13T04:15:13;8.80;;;6.40;;
58360;SDS011;44164;44.954;10.068;2022-12-13T04:17:39;8.43;;;6.75;;
58360;SDS011;44164;44.954;10.068;2022-12-13T04:20:05;7.00;;;6.30;;
58360;SDS011;44164;44.954;10.068;2022-12-13T04:22:32;7.13;;;6.20;;
58360;SDS011;44164;44.954;10.068;2022-12-13T04:24:58;7.70;;;6.90;;
58360;SDS011;44164;44.954;10.068;2022-12-13T04:27:24;7.10;;;5.97;;
58360;SDS011;44164;44.954;10.068;2022-12-13T04:29:50;8.07;;;6.22;;
58360;SDS011;44164;44.954;10.068;2022-12-13T04:32:16;8.75;;;6.70;;
58360;SDS011;44164;44.954;10.068;2022-12-13T04:34:42;7.72;;;6.25;;
58360;SDS011;44164;44.954;10.068;2022-12-13T04:37:08;6.65;;;5.90;;
58360;SDS011;44164;44.954;10.068;2022-12-13T04:39:34;6.88;;;5.82;;
58360;SDS011;44164;44.954;10.068;2022-12-13T04:42:01;7.65;;;6.00;;
58360;SDS011;44164;44.954;10.068;2022-12-13T04:44:29;7.43;;;6.00;;
58360;SDS011;44164;44.954;10.068;2022-12-13T04:46:56;7.18;;;5.75;;
58360;SDS011;44164;44.954;10.068;2022-12-13T04:49:22;7.03;;;5.97;;
58360;SDS011;44164;44.954;10.068;2022-12-13T04:51:48;6.05;;;5.30;;
58360;SDS011;44164;44.954;10.068;2022-12-13T04:54:14;7.13;;;6.07;;
58360;SDS011;44164;44.954;10.068;2022-12-13T04:56:40;7.43;;;6.40;;
58360;SDS011;44164;44.954;10.068;2022-12-13T04:59:07;7.07;;;6.10;;
58360;SDS011;44164;44.954;10.068;2022-12-13T05:01:33;9.93;;;6.03;;
58360;SDS011;44164;44.954;10.068;2022-12-13T05:04:00;7.68;;;6.30;;
58360;SDS011;44164;44.954;10.068;2022-12-13T05:06:28;6.78;;;5.72;;
58360;SDS011;44164;44.954;10.068;2022-12-13T05:08:54;6.75;;;6.05;;
58360;SDS011;44164;44.954;10.068;2022-12-13T05:11:20;7.70;;;6.05;;
58360;SDS011;44164;44.954;10.068;2022-12-13T05:13:46;7.38;;;6.18;;
58360;SDS011;44164;44.954;10.068;2022-12-13T05:16:12;7.38;;;6.28;;
58360;SDS011;44164;44.954;10.068;2022-12-13T05:18:40;7.95;;;6.40;;
58360;SDS011;44164;44.954;10.068;2022-12-13T05:21:08;9.77;;;5.85;;
58360;SDS011;44164;44.954;10.068;2022-12-13T05:23:35;7.10;;;5.80;;
58360;SDS011;44164;44.954;10.068;2022-12-13T05:26:02;8.57;;;5.53;;
58360;SDS011;44164;44.954;10.068;2022-12-13T05:28:28;9.13;;;5.75;;
58360;SDS011;44164;44.954;10.068;2022-12-13T05:30:56;9.23;;;5.45;;
58360;SDS011;44164;44.954;10.068;2022-12-13T05:35:50;7.90;;;5.65;;
58360;SDS011;44164;44.954;10.068;2022-12-13T05:38:17;7.75;;;6.07;;
58360;SDS011;44164;44.954;10.068;2022-12-13T05:40:43;9.30;;;5.78;;
58360;SDS011;44164;44.954;10.068;2022-12-13T05:43:12;7.22;;;5.28;;
58360;SDS011;44164;44.954;10.068;2022-12-13T05:45:38;6.65;;;5.70;;
58360;SDS011;44164;44.954;10.068;2022-12-13T05:48:05;7.00;;;5.63;;
58360;SDS011;44164;44.954;10.068;2022-12-13T05:50:31;8.30;;;5.38;;
58360;SDS011;44164;44.954;10.068;2022-12-13T05:52:57;7.10;;;6.10;;
58360;SDS011;44164;44.954;10.068;2022-12-13T05:55:23;6.78;;;5.70;;
58360;SDS011;44164;44.954;10.068;2022-12-13T05:57:49;6.90;;;5.80;;
58360;SDS011;44164;44.954;10.068;2022-12-13T06:00:15;8.68;;;5.47;;
58360;SDS011;44164;44.954;10.068;2022-12-13T06:02:42;9.25;;;5.93;;
58360;SDS011;44164;44.954;10.068;2022-12-13T06:05:09;6.82;;;5.70;;
58360;SDS011;44164;44.954;10.068;2022-12-13T06:07:36;7.13;;;5.33;;
58360;SDS011;44164;44.954;10.068;2022-12-13T06:10:04;5.88;;;4.80;;
58360;SDS011;44164;44.954;10.068;2022-12-13T06:12:31;6.28;;;5.35;;
58360;SDS011;44164;44.954;10.068;2022-12-13T06:14:59;6.78;;;5.57;;
58360;SDS011;44164;44.954;10.068;2022-12-13T06:17:29;5.95;;;5.15;;
58360;SDS011;44164;44.954;10.068;2022-12-13T06:19:56;7.20;;;5.40;;
58360;SDS011;44164;44.954;10.068;2022-12-13T06:22:22;6.10;;;5.03;;
58360;SDS011;44164;44.954;10.068;2022-12-13T06:24:48;8.63;;;5.50;;
58360;SDS011;44164;44.954;10.068;2022-12-13T06:27:14;5.50;;;4.80;;
58360;SDS011;44164;44.954;10.068;2022-12-13T06:29:40;5.95;;;4.85;;
58360;SDS011;44164;44.954;10.068;2022-12-13T06:32:06;5.53;;;4.82;;
58360;SDS011;44164;44.954;10.068;2022-12-13T06:34:33;8.05;;;5.55;;
58360;SDS011;44164;44.954;10.068;2022-12-13T06:37:01;6.28;;;5.07;;
58360;SDS011;44164;44.954;10.068;2022-12-13T06:41:55;6.75;;;5.35;;
58360;SDS011;44164;44.954;10.068;2022-12-13T06:44:21;6.65;;;5.45;;
58360;SDS011;44164;44.954;10.068;2022-12-13T06:46:47;6.18;;;4.65;;
58360;SDS011;44164;44.954;10.068;2022-12-13T06:49:13;6.22;;;5.20;;
58360;SDS011;44164;44.954;10.068;2022-12-13T06:51:39;8.15;;;5.18;;
58360;SDS011;44164;44.954;10.068;2022-12-13T06:54:06;7.25;;;5.88;;
58360;SDS011;44164;44.954;10.068;2022-12-13T06:56:32;6.53;;;5.60;;
58360;SDS011;44164;44.954;10.068;2022-12-13T06:58:58;9.65;;;6.47;;
58360;SDS011;44164;44.954;10.068;2022-12-13T07:01:25;6.47;;;5.20;;
58360;SDS011;44164;44.954;10.068;2022-12-13T07:03:54;8.45;;;5.68;;
58360;SDS011;44164;44.954;10.068;2022-12-13T07:06:21;7.57;;;5.68;;
58360;SDS011;44164;44.954;10.068;2022-12-13T07:08:52;8.40;;;6.27;;
58360;SDS011;44164;44.954;10.068;2022-12-13T07:11:21;6.75;;;5.32;;
58360;SDS011;44164;44.954;10.068;2022-12-13T07:13:49;7.47;;;5.22;;
58360;SDS011;44164;44.954;10.068;2022-12-13T07:16:15;6.00;;;4.60;;
58360;SDS011;44164;44.954;10.068;2022-12-13T07:18:41;7.43;;;5.43;;
58360;SDS011;44164;44.954;10.068;2022-12-13T07:21:08;10.50;;;5.60;;
58360;SDS011;44164;44.954;10.068;2022-12-13T07:26:02;6.32;;;4.90;;
58360;SDS011;44164;44.954;10.068;2022-12-13T07:28:33;6.25;;;5.13;;
58360;SDS011;44164;44.954;10.068;2022-12-13T07:31:00;7.40;;;4.97;;
58360;SDS011;44164;44.954;10.068;2022-12-13T07:33:27;7.43;;;4.78;;
58360;SDS011;44164;44.954;10.068;2022-12-13T07:36:00;5.80;;;5.07;;
58360;SDS011;44164;44.954;10.068;2022-12-13T07:38:27;6.28;;;4.72;;
58360;SDS011;44164;44.954;10.068;2022-12-13T07:40:54;6.78;;;5.43;;
58360;SDS011;44164;44.954;10.068;2022-12-13T07:43:22;6.53;;;4.82;;
58360;SDS011;44164;44.954;10.068;2022-12-13T07:45:48;7.05;;;4.07;;
58360;SDS011;44164;44.954;10.068;2022-12-13T07:48:14;6.80;;;4.90;;
58360;SDS011;44164;44.954;10.068;2022-12-13T07:50:40;5.60;;;4.80;;
58360;SDS011;44164;44.954;10.068;2022-12-13T07:53:07;6.18;;;5.22;;
58360;SDS011;44164;44.954;10.068;2022-12-13T07:55:34;6.20;;;4.38;;
58360;SDS011;44164;44.954;10.068;2022-12-13T07:58:02;8.05;;;4.72;;
58360;SDS011;44164;44.954;10.068;2022-12-13T08:00:32;6.07;;;5.00;;
58360;SDS011;44164;44.954;10.068;2022-12-13T08:02:59;5.40;;;4.38;;
58360;SDS011;44164;44.954;10.068;2022-12-13T08:05:26;6.53;;;5.60;;
58360;SDS011;44164;44.954;10.068;2022-12-13T08:07:52;6.00;;;4.80;;
58360;SDS011;44164;44.954;10.068;2022-12-13T08:10:18;6.15;;;4.95;;
58360;SDS011;44164;44.954;10.068;2022-12-13T08:12:44;6.88;;;4.40;;
58360;SDS011;44164;44.954;10.068;2022-12-13T08:15:11;6.38;;;4.88;;
58360;SDS011;44164;44.954;10.068;2022-12-13T08:17:37;5.35;;;4.57;;
58360;SDS011;44164;44.954;10.068;2022-12-13T08:20:03;5.75;;;4.57;;
58360;SDS011;44164;44.954;10.068;2022-12-13T08:22:30;5.10;;;4.18;;
58360;SDS011;44164;44.954;10.068;2022-12-13T08:24:56;4.70;;;3.92;;
58360;SDS011;44164;44.954;10.068;2022-12-13T08:27:22;5.57;;;4.78;;
58360;SDS011;44164;44.954;10.068;2022-12-13T08:29:48;5.13;;;4.18;;
58360;SDS011;44164;44.954;10.068;2022-12-13T08:32:14;5.10;;;3.97;;
58360;SDS011;44164;44.954;10.068;2022-12-13T08:34:41;6.78;;;5.35;;
58360;SDS011;44164;44.954;10.068;2022-12-13T08:37:07;5.68;;;4.82;;
58360;SDS011;44164;44.954;10.068;2022-12-13T08:39:34;5.35;;;4.13;;
58360;SDS011;44164;44.954;10.068;2022-12-13T08:42:04;5.45;;;4.65;;
58360;SDS011;44164;44.954;10.068;2022-12-13T08:44:32;5.43;;;4.35;;
58360;SDS011;44164;44.954;10.068;2022-12-13T08:46:58;4.95;;;4.05;;
58360;SDS011;44164;44.954;10.068;2022-12-13T08:49:24;4.55;;;4.00;;
58360;SDS011;44164;44.954;10.068;2022-12-13T08:51:50;6.13;;;4.60;;
58360;SDS011;44164;44.954;10.068;2022-12-13T08:54:16;6.85;;;4.88;;
58360;SDS011;44164;44.954;10.068;2022-12-13T08:56:42;6.95;;;4.15;;
58360;SDS011;44164;44.954;10.068;2022-12-13T08:59:09;5.65;;;4.43;;
58360;SDS011;44164;44.954;10.068;2022-12-13T09:01:35;5.00;;;4.10;;
58360;SDS011;44164;44.954;10.068;2022-12-13T09:04:01;5.53;;;4.30;;
58360;SDS011;44164;44.954;10.068;2022-12-13T09:06:27;5.57;;;4.25;;
58360;SDS011;44164;44.954;10.068;2022-12-13T09:08:53;5.45;;;4.32;;
58360;SDS011;44164;44.954;10.068;2022-12-13T09:11:19;4.75;;;4.05;;
58360;SDS011;44164;44.954;10.068;2022-12-13T09:13:46;5.15;;;4.05;;
58360;SDS011;44164;44.954;10.068;2022-12-13T09:16:14;4.47;;;3.88;;
58360;SDS011;44164;44.954;10.068;2022-12-13T09:18:43;5.20;;;4.32;;
58360;SDS011;44164;44.954;10.068;2022-12-13T09:21:12;4.88;;;4.10;;
58360;SDS011;44164;44.954;10.068;2022-12-13T09:23:39;4.70;;;3.90;;
58360;SDS011;44164;44.954;10.068;2022-12-13T09:26:09;5.68;;;4.50;;
58360;SDS011;44164;44.954;10.068;2022-12-13T09:28:37;4.95;;;3.95;;
58360;SDS011;44164;44.954;10.068;2022-12-13T09:31:07;6.30;;;4.70;;
58360;SDS011;44164;44.954;10.068;2022-12-13T09:33:34;5.25;;;4.47;;
58360;SDS011;44164;44.954;10.068;2022-12-13T09:36:02;4.90;;;3.90;;
58360;SDS011;44164;44.954;10.068;2022-12-13T09:38:32;5.35;;;4.00;;
58360;SDS011;44164;44.954;10.068;2022-12-13T09:41:02;5.47;;;4.32;;
58360;SDS011;44164;44.954;10.068;2022-12-13T09:43:58;4.82;;;4.03;;
58360;SDS011;44164;44.954;10.068;2022-12-13T09:46:29;4.13;;;3.42;;
58360;SDS011;44164;44.954;10.068;2022-12-13T09:48:58;5.80;;;3.63;;
58360;SDS011;44164;44.954;10.068;2022-12-13T09:51:26;4.95;;;3.97;;
58360;SDS011;44164;44.954;10.068;2022-12-13T09:53:53;5.20;;;4.07;;
58360;SDS011;44164;44.954;10.068;2022-12-13T09:56:20;5.07;;;3.45;;
58360;SDS011;44164;44.954;10.068;2022-12-13T09:58:47;4.72;;;3.55;;
58360;SDS011;44164;44.954;10.068;2022-12-13T10:01:14;3.90;;;3.23;;
58360;SDS011;44164;44.954;10.068;2022-12-13T10:03:41;3.75;;;3.35;;
58360;SDS011;44164;44.954;10.068;2022-12-13T10:06:20;3.88;;;3.42;;
58360;SDS011;44164;44.954;10.068;2022-12-13T10:08:48;5.20;;;3.92;;
58360;SDS011;44164;44.954;10.068;2022-12-13T10:11:16;5.70;;;3.85;;
58360;SDS011;44164;44.954;10.068;2022-12-13T10:13:43;4.35;;;3.70;;
58360;SDS011;44164;44.954;10.068;2022-12-13T10:16:18;3.55;;;2.88;;
58360;SDS011;44164;44.954;10.068;2022-12-13T10:21:54;4.63;;;3.65;;
58360;SDS011;44164;44.954;10.068;2022-12-13T10:24:21;4.75;;;3.60;;
58360;SDS011;44164;44.954;10.068;2022-12-13T10:26:55;4.20;;;3.38;;
58360;SDS011;44164;44.954;10.068;2022-12-13T10:29:24;5.22;;;3.30;;
58360;SDS011;44164;44.954;10.068;2022-12-13T10:31:51;5.60;;;3.97;;
58360;SDS011;44164;44.954;10.068;2022-12-13T10:34:27;3.75;;;3.20;;
58360;SDS011;44164;44.954;10.068;2022-12-13T10:36:54;4.05;;;3.05;;
58360;SDS011;44164;44.954;10.068;2022-12-13T10:39:37;4.35;;;3.63;;
58360;SDS011;44164;44.954;10.068;2022-12-13T10:42:11;4.18;;;3.08;;
58360;SDS011;44164;44.954;10.068;2022-12-13T10:44:38;5.00;;;3.45;;
58360;SDS011;44164;44.954;10.068;2022-12-13T10:49:40;4.20;;;3.42;;
58360;SDS011;44164;44.954;10.068;2022-12-13T10:55:01;4.82;;;3.58;;
58360;SDS011;44164;44.954;10.068;2022-12-13T10:57:31;5.63;;;3.60;;
58360;SDS011;44164;44.954;10.068;2022-12-13T10:59:58;3.30;;;2.90;;
58360;SDS011;44164;44.954;10.068;2022-12-13T11:05:20;4.05;;;3.00;;
58360;SDS011;44164;44.954;10.068;2022-12-13T11:07:48;4.38;;;3.08;;
58360;SDS011;44164;44.954;10.068;2022-12-13T11:10:16;3.70;;;3.03;;
58360;SDS011;44164;44.954;10.068;2022-12-13T11:12:46;4.00;;;2.92;;
58360;SDS011;44164;44.954;10.068;2022-12-13T11:15:16;3.58;;;2.97;;
58360;SDS011;44164;44.954;10.068;2022-12-13T11:17:49;3.85;;;2.80;;
58360;SDS011;44164;44.954;10.068;2022-12-13T11:20:18;4.13;;;3.67;;
58360;SDS011;44164;44.954;10.068;2022-12-13T11:22:47;4.53;;;3.78;;
58360;SDS011;44164;44.954;10.068;2022-12-13T11:28:06;4.38;;;3.38;;
58360;SDS011;44164;44.954;10.068;2022-12-13T11:42:04;4.15;;;3.53;;
58360;SDS011;44164;44.954;10.068;2022-12-13T11:50:38;4.05;;;3.35;;
58360;SDS011;44164;44.954;10.068;2022-12-13T11:53:15;4.05;;;3.53;;
58360;SDS011;44164;44.954;10.068;2022-12-13T11:55:58;4.97;;;4.03;;
58360;SDS011;44164;44.954;10.068;2022-12-13T12:01:16;5.75;;;4.20;;
58360;SDS011;44164;44.954;10.068;2022-12-13T12:03:56;5.22;;;3.80;;
58360;SDS011;44164;44.954;10.068;2022-12-13T12:06:28;4.68;;;3.72;;
58360;SDS011;44164;44.954;10.068;2022-12-13T12:09:03;5.53;;;3.80;;
58360;SDS011;44164;44.954;10.068;2022-12-13T12:11:33;5.32;;;3.85;;
58360;SDS011;44164;44.954;10.068;2022-12-13T12:14:07;4.95;;;3.70;;
58360;SDS011;44164;44.954;10.068;2022-12-13T12:16:36;4.65;;;3.55;;
58360;SDS011;44164;44.954;10.068;2022-12-13T12:19:12;4.80;;;3.38;;
58360;SDS011;44164;44.954;10.068;2022-12-13T12:24:51;5.72;;;3.53;;
58360;SDS011;44164;44.954;10.068;2022-12-13T12:43:38;4.20;;;2.85;;
58360;SDS011;44164;44.954;10.068;2022-12-13T12:57:24;3.22;;;2.42;;
58360;SDS011;44164;44.954;10.068;2022-12-13T13:00:03;4.30;;;2.78;;
58360;SDS011;44164;44.954;10.068;2022-12-13T13:08:14;3.90;;;2.42;;
58360;SDS011;44164;44.954;10.068;2022-12-13T13:10:47;4.78;;;2.65;;
58360;SDS011;44164;44.954;10.068;2022-12-13T13:16:02;4.03;;;2.67;;
58360;SDS011;44164;44.954;10.068;2022-12-13T13:18:50;4.00;;;2.53;;
58360;SDS011;44164;44.954;10.068;2022-12-13T13:26:30;3.65;;;2.40;;
58360;SDS011;44164;44.954;10.068;2022-12-13T13:31:58;5.93;;;2.92;;
58360;SDS011;44164;44.954;10.068;2022-12-13T13:34:37;6.97;;;2.38;;
58360;SDS011;44164;44.954;10.068;2022-12-13T13:42:22;2.90;;;2.33;;
58360;SDS011;44164;44.954;10.068;2022-12-13T14:28:17;4.75;;;2.25;;
58360;SDS011;44164;44.954;10.068;2022-12-13T14:30:55;5.80;;;2.60;;
58360;SDS011;44164;44.954;10.068;2022-12-13T14:33:22;2.67;;;1.92;;
58360;SDS011;44164;44.954;10.068;2022-12-13T14:35:59;4.43;;;2.53;;
58360;SDS011;44164;44.954;10.068;2022-12-13T14:38:29;3.83;;;2.25;;
58360;SDS011;44164;44.954;10.068;2022-12-13T14:40:57;3.28;;;2.15;;
58360;SDS011;44164;44.954;10.068;2022-12-13T14:43:28;3.85;;;2.72;;
58360;SDS011;44164;44.954;10.068;2022-12-13T14:45:57;3.85;;;2.13;;
58360;SDS011;44164;44.954;10.068;2022-12-13T14:48:28;3.95;;;2.45;;
58360;SDS011;44164;44.954;10.068;2022-12-13T14:50:59;3.42;;;2.67;;
58360;SDS011;44164;44.954;10.068;2022-12-13T14:53:26;3.65;;;2.35;;
58360;SDS011;44164;44.954;10.068;2022-12-13T14:56:28;3.20;;;2.10;;
58360;SDS011;44164;44.954;10.068;2022-12-13T14:58:54;9.88;;;2.55;;
58360;SDS011;44164;44.954;10.068;2022-12-13T15:01:29;4.30;;;2.20;;
58360;SDS011;44164;44.954;10.068;2022-12-13T15:07:02;5.88;;;2.90;;
58360;SDS011;44164;44.954;10.068;2022-12-13T15:09:37;4.38;;;2.75;;
58360;SDS011;44164;44.954;10.068;2022-12-13T15:12:12;4.20;;;2.63;;
58360;SDS011;44164;44.954;10.068;2022-12-13T15:14:44;4.35;;;3.03;;
58360;SDS011;44164;44.954;10.068;2022-12-13T15:17:27;4.95;;;2.90;;
58360;SDS011;44164;44.954;10.068;2022-12-13T15:19:58;6.07;;;2.83;;
58360;SDS011;44164;44.954;10.068;2022-12-13T15:22:32;10.40;;;2.45;;
58360;SDS011;44164;44.954;10.068;2022-12-13T15:25:01;4.65;;;2.38;;
58360;SDS011;44164;44.954;10.068;2022-12-13T15:27:37;4.15;;;2.55;;
58360;SDS011;44164;44.954;10.068;2022-12-13T15:30:03;8.57;;;3.28;;
58360;SDS011;44164;44.954;10.068;2022-12-13T15:32:30;6.97;;;2.50;;
58360;SDS011;44164;44.954;10.068;2022-12-13T15:34:56;12.32;;;2.72;;
58360;SDS011;44164;44.954;10.068;2022-12-13T15:37:39;4.60;;;2.17;;
58360;SDS011;44164;44.954;10.068;2022-12-13T15:40:11;4.18;;;2.80;;
58360;SDS011;44164;44.954;10.068;2022-12-13T15:42:42;4.32;;;2.25;;
58360;SDS011;44164;44.954;10.068;2022-12-13T15:45:18;3.40;;;2.25;;
58360;SDS011;44164;44.954;10.068;2022-12-13T15:47:47;6.07;;;2.33;;
58360;SDS011;44164;44.954;10.068;2022-12-13T15:50:28;6.88;;;2.40;;
58360;SDS011;44164;44.954;10.068;2022-12-13T15:53:05;4.78;;;2.40;;
58360;SDS011;44164;44.954;10.068;2022-12-13T15:55:44;4.15;;;2.05;;
58360;SDS011;44164;44.954;10.068;2022-12-13T16:01:00;3.47;;;2.30;;
58360;SDS011;44164;44.954;10.068;2022-12-13T16:03:40;5.22;;;2.20;;
58360;SDS011;44164;44.954;10.068;2022-12-13T16:06:07;3.45;;;2.30;;
58360;SDS011;44164;44.954;10.068;2022-12-13T16:08:35;3.78;;;2.20;;
58360;SDS011;44164;44.954;10.068;2022-12-13T16:11:04;3.15;;;2.00;;
58360;SDS011;44164;44.954;10.068;2022-12-13T16:13:32;3.97;;;2.65;;
58360;SDS011;44164;44.954;10.068;2022-12-13T16:16:18;5.25;;;2.13;;
58360;SDS011;44164;44.954;10.068;2022-12-13T16:18:50;3.47;;;2.05;;
58360;SDS011;44164;44.954;10.068;2022-12-13T16:21:17;3.63;;;2.60;;
58360;SDS011;44164;44.954;10.068;2022-12-13T16:23:43;3.25;;;2.22;;
58360;SDS011;44164;44.954;10.068;2022-12-13T16:26:12;3.20;;;2.00;;
58360;SDS011;44164;44.954;10.068;2022-12-13T16:28:39;3.22;;;1.75;;
58360;SDS011;44164;44.954;10.068;2022-12-13T16:31:16;5.90;;;3.00;;
58360;SDS011;44164;44.954;10.068;2022-12-13T16:33:43;5.30;;;2.63;;
58360;SDS011;44164;44.954;10.068;2022-12-13T16:36:10;2.88;;;1.90;;
58360;SDS011;44164;44.954;10.068;2022-12-13T16:38:36;3.33;;;2.45;;
58360;SDS011;44164;44.954;10.068;2022-12-13T16:41:03;14.88;;;2.22;;
58360;SDS011;44164;44.954;10.068;2022-12-13T16:43:29;4.63;;;2.03;;
58360;SDS011;44164;44.954;10.068;2022-12-13T16:45:56;3.47;;;2.20;;
58360;SDS011;44164;44.954;10.068;2022-12-13T16:48:22;5.13;;;2.47;;
58360;SDS011;44164;44.954;10.068;2022-12-13T16:50:49;4.72;;;2.60;;
58360;SDS011;44164;44.954;10.068;2022-12-13T16:53:16;7.00;;;3.00;;
58360;SDS011;44164;44.954;10.068;2022-12-13T16:55:43;5.20;;;2.33;;
58360;SDS011;44164;44.954;10.068;2022-12-13T16:58:16;5.75;;;2.20;;
58360;SDS011;44164;44.954;10.068;2022-12-13T17:00:44;5.03;;;3.00;;
58360;SDS011;44164;44.954;10.068;2022-12-13T17:03:13;4.43;;;2.58;;
58360;SDS011;44164;44.954;10.068;2022-12-13T17:05:40;4.68;;;2.15;;
58360;SDS011;44164;44.954;10.068;2022-12-13T17:08:09;2.83;;;2.10;;
58360;SDS011;44164;44.954;10.068;2022-12-13T17:10:38;3.05;;;2.08;;
58360;SDS011;44164;44.954;10.068;2022-12-13T17:13:04;5.97;;;2.58;;
58360;SDS011;44164;44.954;10.068;2022-12-13T17:15:30;4.38;;;2.53;;
58360;SDS011;44164;44.954;10.068;2022-12-13T17:17:58;4.27;;;2.60;;
58360;SDS011;44164;44.954;10.068;2022-12-13T17:20:24;3.53;;;2.20;;
58360;SDS011;44164;44.954;10.068;2022-12-13T17:22:51;3.45;;;2.40;;
58360;SDS011;44164;44.954;10.068;2022-12-13T17:25:17;5.28;;;2.17;;
58360;SDS011;44164;44.954;10.068;2022-12-13T17:27:44;3.72;;;2.42;;
58360;SDS011;44164;44.954;10.068;2022-12-13T17:30:13;4.68;;;2.28;;
58360;SDS011;44164;44.954;10.068;2022-12-13T17:32:40;4.93;;;2.75;;
58360;SDS011;44164;44.954;10.068;2022-12-13T17:35:06;3.50;;;2.08;;
58360;SDS011;44164;44.954;10.068;2022-12-13T17:37:33;4.85;;;2.40;;
58360;SDS011;44164;44.954;10.068;2022-12-13T17:39:59;3.80;;;2.50;;
58360;SDS011;44164;44.954;10.068;2022-12-13T17:42:25;4.25;;;2.40;;
58360;SDS011;44164;44.954;10.068;2022-12-13T17:44:52;4.15;;;2.67;;
58360;SDS011;44164;44.954;10.068;2022-12-13T17:47:18;3.30;;;2.53;;